createdAt,value
2022-10-13T02:55:22.655Z,16.40
2022-10-13T02:57:56.679Z,19.05
2022-10-13T03:00:24.100Z,18.13
2022-10-13T03:02:51.375Z,11.35
2022-10-13T03:05:18.668Z,20.92
2022-10-13T03:07:46.115Z,11.18
2022-10-13T03:10:13.114Z,15.23
2022-10-13T03:12:40.170Z,15.25
2022-10-13T03:15:07.981Z,15.68
2022-10-13T03:17:35.151Z,27.77
2022-10-13T03:20:02.536Z,17.58
2022-10-13T03:22:32.556Z,13.70
2022-10-13T03:25:00.112Z,15.68
2022-10-13T03:27:27.197Z,17.38
2022-10-13T03:29:54.326Z,12.70
2022-10-13T03:32:21.998Z,14.75
2022-10-13T03:34:50.216Z,15.57
2022-10-13T03:37:18.020Z,21.13
2022-10-13T03:39:45.147Z,14.88
2022-10-13T03:42:13.731Z,11.23
2022-10-13T03:44:41.420Z,17.25
2022-10-13T03:47:08.579Z,14.45
2022-10-13T03:49:35.712Z,10.82
2022-10-13T03:52:02.814Z,15.32
2022-10-13T03:54:29.909Z,13.10
2022-10-13T03:56:57.769Z,14.00
2022-10-13T03:59:25.019Z,14.38
2022-10-13T04:01:52.312Z,14.25
2022-10-13T04:04:19.497Z,13.23
2022-10-13T04:06:49.004Z,11.73
2022-10-13T04:09:16.416Z,12.38
2022-10-13T04:11:43.634Z,11.70
2022-10-13T04:14:11.052Z,15.73
2022-10-13T04:16:40.604Z,12.35
2022-10-13T04:19:08.114Z,17.60
2022-10-13T04:21:35.847Z,15.52
2022-10-13T04:24:12.784Z,12.93
2022-10-13T04:26:40.487Z,16.50
2022-10-13T04:29:09.771Z,14.52
2022-10-13T04:31:43.079Z,11.20
2022-10-13T04:34:11.298Z,16.30
2022-10-13T04:36:39.197Z,11.45
2022-10-13T04:39:06.352Z,11.25
2022-10-13T04:41:33.807Z,18.45
2022-10-13T04:44:02.684Z,14.57
2022-10-13T04:46:31.057Z,11.55
2022-10-13T04:48:58.671Z,12.38
2022-10-13T04:51:32.884Z,13.55
2022-10-13T04:54:03.370Z,12.75
2022-10-13T04:56:30.869Z,12.02
2022-10-13T04:59:02.694Z,14.05
2022-10-13T05:01:30.012Z,11.95
2022-10-13T05:03:59.875Z,13.45
2022-10-13T05:06:32.892Z,15.73
2022-10-13T05:09:00.603Z,9.50
2022-10-13T05:11:29.384Z,15.93
2022-10-13T05:13:57.695Z,15.32
2022-10-13T05:16:25.498Z,10.65
2022-10-13T05:18:55.080Z,14.32
2022-10-13T05:21:25.786Z,11.57
2022-10-13T05:23:57.012Z,13.68
2022-10-13T05:26:29.412Z,19.13
2022-10-13T05:28:57.398Z,13.70
2022-10-13T05:31:27.560Z,15.40
2022-10-13T05:33:56.879Z,11.45
2022-10-13T05:36:32.670Z,10.93
2022-10-13T05:39:05.344Z,13.90
2022-10-13T05:41:32.557Z,9.30
2022-10-13T05:44:06.954Z,13.15
2022-10-13T05:46:34.471Z,10.63
2022-10-13T05:49:02.048Z,12.88
2022-10-13T05:51:46.097Z,17.25
2022-10-13T05:54:31.052Z,12.40
2022-10-13T05:57:06.802Z,22.02
2022-10-13T05:59:40.271Z,13.30
2022-10-13T06:02:10.151Z,14.20
2022-10-13T06:04:45.276Z,14.93
2022-10-13T06:07:37.522Z,15.48
2022-10-13T06:10:05.055Z,15.73
2022-10-13T06:12:32.470Z,15.35
2022-10-13T06:14:59.605Z,11.77
2022-10-13T06:17:26.904Z,12.68
2022-10-13T06:19:54.083Z,12.50
2022-10-13T06:22:22.534Z,15.75
2022-10-13T06:24:49.783Z,12.75
2022-10-13T06:27:17.805Z,12.20
2022-10-13T06:29:46.621Z,12.90
2022-10-13T06:32:14.015Z,12.48
2022-10-13T06:34:41.189Z,14.70
2022-10-13T06:37:08.493Z,13.57
2022-10-13T06:39:35.912Z,16.42
2022-10-13T06:42:07.025Z,20.38
2022-10-13T06:44:38.523Z,11.63
2022-10-13T06:47:05.716Z,15.88
2022-10-13T06:49:33.100Z,14.68
2022-10-13T06:52:00.275Z,11.77
2022-10-13T06:54:27.504Z,12.38
2022-10-13T06:56:55.316Z,12.27
2022-10-13T06:59:22.845Z,9.88
2022-10-13T07:01:51.999Z,14.23
2022-10-13T07:04:23.166Z,11.75
2022-10-13T07:06:51.216Z,11.45
2022-10-13T07:09:20.301Z,11.48
2022-10-13T07:12:13.828Z,12.02
2022-10-13T07:14:43.703Z,10.13
2022-10-13T07:17:11.589Z,14.25
2022-10-13T07:19:38.818Z,9.48
2022-10-13T07:22:06.011Z,16.48
2022-10-13T07:24:33.211Z,10.30
2022-10-13T07:27:05.300Z,11.98
2022-10-13T07:29:35.300Z,11.55
2022-10-13T07:32:02.614Z,9.63
2022-10-13T07:34:29.881Z,11.45
2022-10-13T07:36:57.372Z,13.68
2022-10-13T07:39:24.578Z,9.60
2022-10-13T07:41:52.027Z,9.50
2022-10-13T07:44:19.241Z,16.55
2022-10-13T07:46:46.383Z,11.27
2022-10-13T07:49:16.161Z,15.57
2022-10-13T07:51:44.542Z,16.27
2022-10-13T07:54:11.876Z,15.43
2022-10-13T07:56:39.738Z,13.30
2022-10-13T07:59:07.481Z,12.98
2022-10-13T08:01:34.797Z,14.68
2022-10-13T08:04:02.140Z,15.45
2022-10-13T08:06:29.457Z,15.70
2022-10-13T08:08:58.455Z,15.18
2022-10-13T08:11:26.639Z,15.50
2022-10-13T08:13:56.117Z,13.75
2022-10-13T08:16:23.649Z,19.48
2022-10-13T08:18:51.127Z,16.35
2022-10-13T08:24:08.162Z,19.65
2022-10-13T08:26:35.419Z,16.55
2022-10-13T08:29:22.879Z,16.33
2022-10-13T08:31:53.090Z,17.55
2022-10-13T08:34:21.879Z,31.10
2022-10-13T08:36:52.966Z,25.50
2022-10-13T08:39:21.961Z,26.75
2022-10-13T08:41:49.931Z,34.10
2022-10-13T08:45:39.883Z,26.48
2022-10-13T08:48:12.694Z,27.73
2022-10-13T08:50:48.818Z,27.17
2022-10-13T08:53:35.969Z,28.15
2022-10-13T08:56:26.442Z,35.95
2022-10-13T08:58:56.808Z,27.88
2022-10-13T09:01:29.658Z,26.08
2022-10-13T09:04:31.979Z,28.23
2022-10-13T09:07:06.442Z,23.10
2022-10-13T09:09:33.756Z,24.40
2022-10-13T09:12:01.055Z,26.33
2022-10-13T09:14:33.545Z,24.67
2022-10-13T09:17:21.304Z,22.95
2022-10-13T09:20:07.099Z,27.67
2022-10-13T09:22:39.744Z,21.80
2022-10-13T09:25:06.949Z,27.77
2022-10-13T09:27:58.496Z,18.23
2022-10-13T09:30:43.256Z,21.20
2022-10-13T09:33:13.573Z,23.00
2022-10-13T09:35:45.162Z,22.52
2022-10-13T09:38:15.048Z,27.80
2022-10-13T09:43:38.124Z,21.05
2022-10-13T09:46:24.309Z,24.30
2022-10-13T09:48:58.732Z,19.48
2022-10-13T09:51:40.377Z,21.92
2022-10-13T09:54:39.187Z,17.02
2022-10-13T09:57:18.520Z,19.17
2022-10-13T09:59:58.416Z,15.45
2022-10-13T10:02:34.393Z,16.52
2022-10-13T10:05:07.015Z,12.77
2022-10-13T10:07:34.245Z,17.67
2022-10-13T10:10:06.374Z,21.10
2022-10-13T10:12:37.584Z,20.40
2022-10-13T10:15:19.965Z,16.52
2022-10-13T10:17:58.880Z,17.42
2022-10-13T10:20:38.275Z,17.33
2022-10-13T10:23:14.991Z,16.77
2022-10-13T10:25:50.597Z,16.75
2022-10-13T10:28:23.010Z,20.27
2022-10-13T10:31:07.246Z,15.35
2022-10-13T10:33:44.742Z,14.43
2022-10-13T10:36:17.330Z,14.18
2022-10-13T10:39:08.647Z,16.08
2022-10-13T10:41:50.870Z,10.38
2022-10-13T10:44:30.727Z,15.70
2022-10-13T10:47:11.480Z,15.82
2022-10-13T10:49:39.867Z,16.60
2022-10-13T10:52:10.934Z,15.63
2022-10-13T10:55:00.211Z,15.35
2022-10-13T10:57:39.941Z,16.08
2022-10-13T11:00:20.007Z,17.35
2022-10-13T11:03:33.697Z,16.65
2022-10-13T11:06:21.247Z,17.30
2022-10-13T11:08:49.913Z,12.65
2022-10-13T11:11:29.256Z,15.18
2022-10-13T11:14:00.362Z,14.40
2022-10-13T11:16:34.026Z,15.00
2022-10-13T11:19:07.428Z,15.05
2022-10-13T11:21:53.022Z,10.70
2022-10-13T11:24:39.525Z,14.73
2022-10-13T11:27:14.698Z,11.35
2022-10-13T11:29:44.974Z,14.85
2022-10-13T11:32:35.896Z,13.20
2022-10-13T11:35:06.338Z,14.00
2022-10-13T11:38:09.911Z,11.48
2022-10-13T11:41:06.378Z,11.35
2022-10-13T11:43:42.606Z,12.45
2022-10-13T11:46:25.085Z,9.98
2022-10-13T11:49:29.220Z,12.82
2022-10-13T11:52:14.037Z,11.70
2022-10-13T11:54:52.072Z,11.25
2022-10-13T11:57:25.202Z,12.65
2022-10-13T11:59:56.976Z,12.32
2022-10-13T12:02:29.746Z,12.50
2022-10-13T12:05:26.732Z,11.00
2022-10-13T12:08:04.078Z,13.18
2022-10-13T12:10:34.753Z,11.35
2022-10-13T12:13:04.674Z,14.82
2022-10-13T12:15:33.938Z,12.25
2022-10-13T12:18:01.597Z,8.48
2022-10-13T12:20:33.119Z,11.25
2022-10-13T12:23:00.322Z,10.15
2022-10-13T12:25:30.525Z,11.52
2022-10-13T12:28:00.537Z,12.45
2022-10-13T12:30:37.245Z,10.20
2022-10-13T12:33:27.470Z,14.07
2022-10-13T12:35:55.103Z,9.57
2022-10-13T12:38:23.425Z,9.77
2022-10-13T12:40:53.715Z,10.48
2022-10-13T12:43:25.805Z,15.30
2022-10-13T12:45:53.233Z,14.27
2022-10-13T12:48:35.552Z,8.48
2022-10-13T12:51:10.383Z,9.17
2022-10-13T12:53:41.341Z,12.38
2022-10-13T12:56:21.618Z,9.05
2022-10-13T12:58:50.104Z,10.32
2022-10-13T13:01:34.591Z,10.88
2022-10-13T13:04:30.780Z,12.63
2022-10-13T13:07:29.642Z,10.77
2022-10-13T13:10:20.613Z,7.55
2022-10-13T13:12:54.647Z,10.00
2022-10-13T13:15:36.243Z,11.38
2022-10-13T13:18:39.779Z,10.70
2022-10-13T13:21:08.596Z,7.80
2022-10-13T13:23:36.433Z,8.77
2022-10-13T13:26:18.454Z,14.70
2022-10-13T13:28:50.305Z,11.15
2022-10-13T13:31:20.518Z,9.32
2022-10-13T13:33:48.325Z,9.15
2022-10-13T13:36:24.180Z,10.15
2022-10-13T13:38:55.056Z,9.80
2022-10-13T13:41:23.022Z,13.88
2022-10-13T13:43:50.295Z,10.00
2022-10-13T13:46:22.188Z,7.75
2022-10-13T13:48:49.523Z,10.55
2022-10-13T13:51:17.253Z,9.43
2022-10-13T13:53:46.229Z,5.47
2022-10-13T13:56:15.918Z,11.38
2022-10-13T13:58:43.824Z,8.23
2022-10-13T14:01:12.141Z,12.57
2022-10-13T14:03:39.359Z,5.57
2022-10-13T14:06:08.692Z,9.85
2022-10-13T14:08:42.663Z,10.52
2022-10-13T14:11:10.445Z,10.13
2022-10-13T14:13:37.706Z,10.75
2022-10-13T14:16:05.013Z,8.75
2022-10-13T14:18:32.553Z,12.60
2022-10-13T14:20:59.696Z,14.23
2022-10-13T14:23:26.862Z,9.57
2022-10-13T14:25:54.773Z,10.10
2022-10-13T14:28:23.232Z,10.10
2022-10-13T14:30:50.766Z,7.75
2022-10-13T14:33:20.647Z,8.18
2022-10-13T14:35:47.840Z,10.13
2022-10-13T14:38:16.700Z,8.38
2022-10-13T14:40:44.865Z,10.73
2022-10-13T14:43:11.898Z,7.97
2022-10-13T14:45:39.056Z,10.20
2022-10-13T14:48:06.294Z,12.25
2022-10-13T14:50:34.466Z,10.27
2022-10-13T14:53:01.612Z,11.82
2022-10-13T14:55:32.398Z,11.20
2022-10-13T14:57:59.553Z,10.32
2022-10-13T15:00:26.695Z,10.43
2022-10-13T15:02:54.063Z,9.18
2022-10-13T15:05:22.862Z,15.07
2022-10-13T15:07:49.906Z,10.57
2022-10-13T15:10:17.058Z,10.40
2022-10-13T15:12:44.112Z,10.30
2022-10-13T15:15:11.484Z,9.25
2022-10-13T15:17:38.696Z,9.35
2022-10-13T15:20:06.714Z,10.50
2022-10-13T15:22:34.104Z,9.60
2022-10-13T15:25:01.178Z,13.57
2022-10-13T15:27:28.375Z,10.18
2022-10-13T15:29:55.489Z,11.13
2022-10-13T15:32:22.801Z,15.05
2022-10-13T15:34:54.646Z,13.27
2022-10-13T15:37:22.035Z,10.55
2022-10-13T15:39:53.206Z,12.57
2022-10-13T15:42:23.652Z,13.70
2022-10-13T15:45:08.643Z,9.05
2022-10-13T15:47:37.233Z,9.88
2022-10-13T15:50:05.066Z,15.00
2022-10-13T15:52:34.845Z,10.88
2022-10-13T15:55:02.493Z,14.55
2022-10-13T15:57:31.237Z,14.55
2022-10-13T15:59:58.336Z,9.70
2022-10-13T16:02:25.662Z,10.55
2022-10-13T16:04:52.842Z,9.75
2022-10-13T16:07:20.012Z,11.98
2022-10-13T16:09:47.145Z,9.50
2022-10-13T16:12:14.467Z,14.35
2022-10-13T16:14:41.560Z,17.23
2022-10-13T16:17:08.769Z,10.02
2022-10-13T16:19:35.910Z,13.75
2022-10-13T16:22:05.965Z,16.40
2022-10-13T16:24:34.345Z,10.38
2022-10-13T16:27:02.079Z,11.18
2022-10-13T16:29:30.054Z,11.23
2022-10-13T16:31:57.145Z,12.65
2022-10-13T16:34:24.657Z,14.23
2022-10-13T16:36:51.753Z,10.85
2022-10-13T16:39:18.923Z,13.27
2022-10-13T16:41:47.221Z,12.23
2022-10-13T16:44:17.008Z,14.93
2022-10-13T16:46:45.241Z,13.13
2022-10-13T16:49:12.998Z,19.67
2022-10-13T16:51:40.123Z,12.77
2022-10-13T16:54:07.327Z,9.00
2022-10-13T16:56:34.601Z,12.95
2022-10-13T16:59:04.576Z,14.38
2022-10-13T17:01:33.353Z,12.90
2022-10-13T17:04:01.496Z,17.77
2022-10-13T17:06:39.674Z,16.95
2022-10-13T17:09:07.504Z,14.27
2022-10-13T17:11:36.472Z,14.30
2022-10-13T17:14:06.122Z,10.93
2022-10-13T17:16:34.097Z,13.05
2022-10-13T17:19:01.175Z,14.95
2022-10-13T17:21:36.495Z,14.13
2022-10-13T17:24:06.773Z,17.77
2022-10-13T17:26:35.255Z,18.70
2022-10-13T17:29:02.616Z,12.73
2022-10-13T17:31:29.805Z,14.50
2022-10-13T17:33:57.737Z,14.18
2022-10-13T17:36:31.350Z,15.73
2022-10-13T17:39:07.177Z,13.27
2022-10-13T17:41:38.069Z,19.23
2022-10-13T17:44:05.556Z,14.35
2022-10-13T17:46:38.401Z,18.10
2022-10-13T17:49:12.074Z,14.35
2022-10-13T17:51:43.223Z,16.55
2022-10-13T17:54:15.743Z,14.00
2022-10-13T17:56:43.845Z,16.50
2022-10-13T17:59:11.140Z,16.15
2022-10-13T18:01:38.838Z,13.70
2022-10-13T18:04:11.378Z,18.05
2022-10-13T18:06:40.808Z,15.55
2022-10-13T18:09:10.980Z,12.50
2022-10-13T18:11:39.335Z,12.00
2022-10-13T18:14:07.521Z,15.63
2022-10-13T18:16:35.779Z,11.05
2022-10-13T18:19:05.101Z,12.43
2022-10-13T18:21:32.463Z,12.00
2022-10-13T18:24:01.626Z,10.50
2022-10-13T18:26:36.980Z,10.77
2022-10-13T18:29:12.438Z,13.23
2022-10-13T18:31:41.843Z,16.20
2022-10-13T18:34:12.820Z,14.52
2022-10-13T18:36:47.398Z,11.85
2022-10-13T18:39:17.757Z,10.02
2022-10-13T18:41:49.062Z,13.18
2022-10-13T18:44:17.689Z,9.45
2022-10-13T18:46:45.986Z,8.80
2022-10-13T18:49:15.646Z,12.90
2022-10-13T18:51:51.481Z,11.68
2022-10-13T18:54:18.803Z,13.65
2022-10-13T18:56:45.885Z,11.30
2022-10-13T18:59:12.998Z,11.65
2022-10-13T19:01:41.648Z,10.02
2022-10-13T19:04:10.001Z,9.48
2022-10-13T19:06:38.083Z,11.70
2022-10-13T19:09:08.003Z,12.88
2022-10-13T19:11:36.907Z,13.13
2022-10-13T19:14:06.064Z,17.08
2022-10-13T19:16:37.235Z,11.23
2022-10-13T19:19:04.884Z,11.43
2022-10-13T19:21:32.874Z,9.98
2022-10-13T19:24:00.906Z,12.85
2022-10-13T19:26:30.838Z,11.13
2022-10-13T19:29:02.098Z,14.77
2022-10-13T19:31:32.108Z,15.95
2022-10-13T19:34:02.176Z,12.18
2022-10-13T19:36:33.506Z,19.58
2022-10-13T19:39:03.211Z,12.18
2022-10-13T19:41:33.506Z,11.57
2022-10-13T19:44:01.742Z,17.40
2022-10-13T19:46:45.973Z,13.30
2022-10-13T19:49:15.548Z,20.80
2022-10-13T19:51:46.101Z,12.57
2022-10-13T19:54:14.055Z,7.70
2022-10-13T19:56:46.488Z,9.82
2022-10-13T19:59:14.636Z,12.63
2022-10-13T20:01:42.065Z,14.98
2022-10-13T20:04:21.431Z,11.30
2022-10-13T20:06:52.772Z,10.75
2022-10-13T20:09:20.577Z,10.55
2022-10-13T20:11:50.843Z,9.23
2022-10-13T20:14:18.272Z,5.00
2022-10-13T20:16:45.736Z,7.32
2022-10-13T20:19:15.394Z,6.50
2022-10-13T20:21:45.621Z,7.38
2022-10-13T20:24:13.940Z,9.57
2022-10-13T20:26:41.213Z,8.35
2022-10-13T20:29:08.565Z,8.43
2022-10-13T20:31:36.045Z,8.88
2022-10-13T20:34:03.788Z,8.63
2022-10-13T20:36:36.042Z,7.30
2022-10-13T20:39:09.350Z,12.23
2022-10-13T20:41:38.194Z,8.13
2022-10-13T20:44:05.299Z,6.35
2022-10-13T20:46:34.235Z,5.13
2022-10-13T20:49:16.858Z,8.25
2022-10-13T20:51:44.700Z,12.45
2022-10-13T20:54:14.343Z,9.00
2022-10-13T20:56:44.388Z,5.05
2022-10-13T20:59:15.263Z,7.47
2022-10-13T21:01:43.623Z,10.95
2022-10-13T21:04:13.608Z,7.50
2022-10-13T21:06:42.991Z,11.15
2022-10-13T21:09:11.154Z,7.90
2022-10-13T21:11:43.920Z,9.65
2022-10-13T21:14:11.199Z,6.35
2022-10-13T21:16:39.396Z,10.50
2022-10-13T21:19:08.919Z,7.15
2022-10-13T21:21:37.033Z,9.52
2022-10-13T21:24:07.055Z,10.05
2022-10-13T21:26:37.049Z,7.15
2022-10-13T21:29:04.877Z,12.70
2022-10-13T21:31:34.861Z,10.30
2022-10-13T21:34:02.177Z,8.93
2022-10-13T21:36:32.040Z,8.23
2022-10-13T21:39:07.251Z,7.72
2022-10-13T21:41:37.168Z,14.70
2022-10-13T21:44:05.488Z,10.70
2022-10-13T21:46:38.148Z,9.98
2022-10-13T21:49:07.797Z,7.70
2022-10-13T21:51:38.748Z,14.43
2022-10-13T21:54:09.224Z,10.45
2022-10-13T21:56:37.899Z,10.50
2022-10-13T21:59:06.057Z,13.23
2022-10-13T22:01:34.226Z,8.85
2022-10-13T22:04:03.069Z,7.15
2022-10-13T22:06:32.329Z,17.60
2022-10-13T22:09:02.624Z,16.38
2022-10-13T22:11:32.045Z,6.55
2022-10-13T22:16:36.093Z,6.68
2022-10-13T22:19:04.194Z,5.18
2022-10-13T22:21:41.161Z,5.13
2022-10-13T22:24:11.237Z,11.68
2022-10-13T22:26:41.375Z,11.63
2022-10-13T22:29:11.084Z,6.00
2022-10-13T22:31:39.067Z,8.38
2022-10-13T22:34:09.935Z,7.15
2022-10-13T22:36:41.062Z,6.70
2022-10-13T22:39:11.005Z,11.00
2022-10-13T22:41:38.767Z,5.28
2022-10-13T22:44:05.966Z,4.03
2022-10-13T22:46:36.044Z,9.48
2022-10-13T22:49:03.915Z,4.10
2022-10-13T22:51:33.557Z,9.40
2022-10-13T22:54:01.262Z,9.60
2022-10-13T22:56:31.428Z,8.82
2022-10-13T22:59:01.702Z,12.05
